createdAt,value
2022-12-09T00:01:56.040Z,99097.38
2022-12-09T00:04:23.922Z,99093.81
2022-12-09T00:06:53.161Z,99089.31
2022-12-09T00:09:20.731Z,99103.34
2022-12-09T00:11:48.214Z,99101.53
2022-12-09T00:14:15.771Z,99100.72
2022-12-09T00:16:43.600Z,99103.38
2022-12-09T00:19:11.357Z,99101.34
2022-12-09T00:21:39.023Z,99097.69
2022-12-09T00:24:08.985Z,99108.59
2022-12-09T00:26:36.611Z,99103.00
2022-12-09T00:29:05.190Z,99115.44
2022-12-09T00:31:35.637Z,99109.56
2022-12-09T00:34:04.953Z,99102.06
2022-12-09T00:36:32.928Z,99114.47
2022-12-09T00:39:01.011Z,99115.13
2022-12-09T00:41:30.243Z,99109.19
2022-12-09T00:43:58.363Z,99109.66
2022-12-09T00:46:26.269Z,99110.13
2022-12-09T00:48:54.349Z,99115.00
2022-12-09T00:51:24.194Z,99107.84
2022-12-09T00:53:54.688Z,99114.63
2022-12-09T00:56:22.922Z,99113.09
2022-12-09T00:58:51.642Z,99109.25
2022-12-09T01:01:19.271Z,99103.03
2022-12-09T01:03:46.949Z,99095.56
2022-12-09T01:06:19.667Z,99100.94
2022-12-09T01:08:47.214Z,99106.25
2022-12-09T01:11:17.892Z,99106.09
2022-12-09T01:13:47.097Z,99097.28
2022-12-09T01:16:17.272Z,99102.06
2022-12-09T01:18:45.625Z,99111.13
2022-12-09T01:21:13.937Z,99113.94
2022-12-09T01:23:41.836Z,99114.06
2022-12-09T01:26:09.954Z,99126.03
2022-12-09T01:28:39.116Z,99122.78
2022-12-09T01:31:08.201Z,99123.06
2022-12-09T01:33:37.079Z,99119.97
2022-12-09T01:36:06.767Z,99119.09
2022-12-09T01:38:34.295Z,99121.06
2022-12-09T01:41:06.612Z,99123.78
2022-12-09T01:43:34.112Z,99121.56
2022-12-09T01:46:01.687Z,99125.00
2022-12-09T01:48:31.620Z,99108.81
2022-12-09T01:51:02.678Z,99115.00
2022-12-09T01:53:32.366Z,99113.09
2022-12-09T01:56:03.898Z,99109.53
2022-12-09T01:58:32.624Z,99113.50
2022-12-09T02:01:00.093Z,99111.94
2022-12-09T02:03:27.863Z,99109.13
2022-12-09T02:05:56.168Z,99110.44
2022-12-09T02:08:25.141Z,99111.50
2022-12-09T02:11:02.413Z,99108.38
2022-12-09T02:13:34.447Z,99108.34
2022-12-09T02:16:04.195Z,99108.53
2022-12-09T02:18:37.989Z,99111.00
2022-12-09T02:21:10.021Z,99113.13
2022-12-09T02:23:42.607Z,99107.81
2022-12-09T02:26:18.123Z,99110.53
2022-12-09T02:29:17.247Z,99110.19
2022-12-09T02:31:55.879Z,99111.75
2022-12-09T02:34:30.110Z,99112.75
2022-12-09T02:37:05.782Z,99107.19
2022-12-09T02:39:46.535Z,99112.84
2022-12-09T02:42:18.185Z,99107.88
2022-12-09T02:44:49.487Z,99103.94
2022-12-09T02:47:21.327Z,99102.34
2022-12-09T02:49:52.514Z,99101.78
2022-12-09T02:52:21.708Z,99101.19
2022-12-09T02:54:49.559Z,99098.03
2022-12-09T02:57:19.414Z,99097.19
2022-12-09T02:59:46.983Z,99097.66
2022-12-09T03:02:20.105Z,99095.69
2022-12-09T03:04:55.204Z,99084.66
2022-12-09T03:07:26.867Z,99087.47
2022-12-09T03:10:01.673Z,99084.81
2022-12-09T03:12:31.663Z,99077.53
2022-12-09T03:14:59.571Z,99077.94
2022-12-09T03:17:31.026Z,99079.41
2022-12-09T03:20:02.087Z,99072.97
2022-12-09T03:22:30.822Z,99073.22
2022-12-09T03:25:03.541Z,99071.50
2022-12-09T03:27:37.125Z,99075.41
2022-12-09T03:30:06.670Z,99073.16
2022-12-09T03:32:36.382Z,99078.69
2022-12-09T03:35:10.715Z,99077.47
2022-12-09T03:37:39.965Z,99074.47
2022-12-09T03:40:14.176Z,99069.44
2022-12-09T03:42:46.864Z,99066.16
2022-12-09T03:45:16.672Z,99063.09
2022-12-09T03:47:44.479Z,99071.22
2022-12-09T03:50:14.100Z,99065.00
2022-12-09T03:52:43.751Z,99061.91
2022-12-09T03:55:19.823Z,99059.13
2022-12-09T03:57:50.404Z,99059.50
2022-12-09T04:00:18.911Z,99059.63
2022-12-09T04:02:47.172Z,99063.66
2022-12-09T04:05:16.205Z,99060.91
2022-12-09T04:07:44.120Z,99055.31
2022-12-09T04:10:13.885Z,99053.28
2022-12-09T04:12:42.251Z,99051.69
2022-12-09T04:15:10.579Z,99052.53
2022-12-09T04:17:38.523Z,99051.88
2022-12-09T04:20:07.950Z,99045.81
2022-12-09T04:22:36.990Z,99049.13
2022-12-09T04:25:04.755Z,99045.16
2022-12-09T04:27:32.186Z,99045.31
2022-12-09T04:29:59.886Z,99040.91
2022-12-09T04:32:27.510Z,99050.97
2022-12-09T04:34:55.052Z,99044.34
2022-12-09T04:37:22.626Z,99049.69
2022-12-09T04:39:51.482Z,99043.53
2022-12-09T04:42:18.931Z,99050.66
2022-12-09T04:44:46.478Z,99047.47
2022-12-09T04:47:14.162Z,99041.53
2022-12-09T04:49:41.615Z,99046.06
2022-12-09T04:52:09.282Z,99043.16
2022-12-09T04:54:36.854Z,99033.56
2022-12-09T04:57:05.904Z,99033.72
2022-12-09T04:59:33.702Z,99036.88
2022-12-09T05:02:01.678Z,99032.06
2022-12-09T05:04:29.682Z,99044.34
2022-12-09T05:06:58.675Z,99050.28
2022-12-09T05:09:26.465Z,99048.72
2022-12-09T05:11:54.334Z,99050.09
2022-12-09T05:14:23.630Z,99046.69
2022-12-09T05:16:53.101Z,99053.09
2022-12-09T05:19:21.077Z,99049.91
2022-12-09T05:21:48.756Z,99040.47
2022-12-09T05:24:16.684Z,99042.41
2022-12-09T05:26:44.170Z,99043.31
2022-12-09T05:29:11.881Z,99048.44
2022-12-09T05:31:41.885Z,99043.91
2022-12-09T05:34:09.494Z,99042.28
2022-12-09T05:36:38.215Z,99038.94
2022-12-09T05:39:06.081Z,99041.56
2022-12-09T05:41:33.843Z,99033.34
2022-12-09T05:44:01.683Z,99033.25
2022-12-09T05:46:35.287Z,99026.91
2022-12-09T05:49:04.825Z,99027.22
2022-12-09T05:51:32.958Z,99025.88
2022-12-09T05:54:02.139Z,99036.59
2022-12-09T05:56:30.042Z,99032.41
2022-12-09T05:58:57.811Z,99038.22
2022-12-09T06:01:26.489Z,99038.13
2022-12-09T06:03:55.419Z,99039.19
2022-12-09T06:06:27.882Z,99040.59
2022-12-09T06:08:57.357Z,99040.75
2022-12-09T06:11:26.063Z,99036.06
2022-12-09T06:13:54.719Z,99035.41
2022-12-09T06:16:23.408Z,99040.22
2022-12-09T06:18:51.530Z,99046.00
2022-12-09T06:21:20.709Z,99051.78
2022-12-09T06:23:50.786Z,99037.84
2022-12-09T06:26:21.539Z,99042.97
2022-12-09T06:28:49.533Z,99042.13
2022-12-09T06:31:17.517Z,99041.28
2022-12-09T06:33:54.975Z,99039.34
2022-12-09T06:36:24.356Z,99037.88
2022-12-09T06:38:53.372Z,99030.97
2022-12-09T06:41:21.295Z,99031.50
2022-12-09T06:43:48.948Z,99026.84
2022-12-09T06:46:17.925Z,99020.22
2022-12-09T06:48:45.819Z,99024.34
2022-12-09T06:51:13.789Z,99023.13
2022-12-09T06:53:41.564Z,99028.06
2022-12-09T06:56:13.315Z,99023.56
2022-12-09T06:58:42.230Z,99017.09
2022-12-09T07:01:13.847Z,99024.94
2022-12-09T07:03:42.762Z,99023.25
2022-12-09T07:06:17.991Z,99030.56
2022-12-09T07:08:45.598Z,99032.72
2022-12-09T07:11:14.780Z,99035.50
2022-12-09T07:13:42.372Z,99044.97
2022-12-09T07:16:10.297Z,99042.00
2022-12-09T07:18:38.179Z,99044.09
2022-12-09T07:21:10.067Z,99048.19
2022-12-09T07:23:37.827Z,99045.41
2022-12-09T07:26:06.904Z,99042.38
2022-12-09T07:28:36.432Z,99040.09
2022-12-09T07:31:04.555Z,99046.13
2022-12-09T07:33:32.736Z,99052.59
2022-12-09T07:36:01.140Z,99048.25
2022-12-09T07:38:28.657Z,99057.63
2022-12-09T07:40:56.155Z,99054.81
2022-12-09T07:43:23.729Z,99056.47
2022-12-09T07:45:52.770Z,99061.69
2022-12-09T07:48:20.802Z,99066.72
2022-12-09T07:50:48.526Z,99068.13
2022-12-09T07:53:16.044Z,99061.66
2022-12-09T07:55:43.477Z,99071.09
2022-12-09T07:58:11.260Z,99066.34
2022-12-09T08:00:39.099Z,99059.28
2022-12-09T08:03:08.134Z,99059.03
2022-12-09T08:05:35.792Z,99064.16
2022-12-09T08:08:04.346Z,99055.38
2022-12-09T08:10:32.472Z,99059.66
2022-12-09T08:13:00.029Z,99058.28
2022-12-09T08:15:27.909Z,99063.75
2022-12-09T08:17:55.948Z,99063.19
2022-12-09T08:20:29.108Z,99062.91
2022-12-09T08:22:57.242Z,99059.84
2022-12-09T08:25:25.107Z,99065.63
2022-12-09T08:27:52.829Z,99076.06
2022-12-09T08:30:20.657Z,99072.34
2022-12-09T08:32:48.678Z,99069.84
2022-12-09T08:35:16.878Z,99074.78
2022-12-09T08:38:25.167Z,99076.41
2022-12-09T08:40:52.958Z,99076.41
2022-12-09T08:43:20.856Z,99076.19
2022-12-09T08:45:48.593Z,99072.97
2022-12-09T08:48:16.680Z,99068.91
2022-12-09T08:50:44.184Z,99078.50
2022-12-09T08:53:11.970Z,99076.78
2022-12-09T08:55:42.190Z,99076.88
2022-12-09T08:58:09.851Z,99070.81
2022-12-09T09:00:37.269Z,99072.13
2022-12-09T09:03:05.843Z,99072.31
2022-12-09T09:05:34.014Z,99082.31
2022-12-09T09:08:01.735Z,99073.94
2022-12-09T09:10:30.578Z,99071.94
2022-12-09T09:13:00.241Z,99074.56
2022-12-09T09:15:27.837Z,99082.44
2022-12-09T09:17:55.924Z,99086.06
2022-12-09T09:20:24.026Z,99087.06
2022-12-09T09:22:51.915Z,99093.63
2022-12-09T09:25:20.527Z,99092.41
2022-12-09T09:27:48.443Z,99098.63
2022-12-09T09:30:17.780Z,99098.09
2022-12-09T09:32:45.384Z,99100.09
2022-12-09T09:35:13.594Z,99097.38
2022-12-09T09:37:41.182Z,99092.59
2022-12-09T09:40:11.562Z,99092.75
2022-12-09T09:42:45.904Z,99100.22
2022-12-09T09:45:17.918Z,99092.91
2022-12-09T09:47:49.489Z,99100.50
2022-12-09T09:50:30.936Z,99098.06
2022-12-09T09:52:59.186Z,99103.22
2022-12-09T09:55:34.765Z,99097.31
2022-12-09T09:58:13.669Z,99101.31
2022-12-09T10:00:46.117Z,99107.47
2022-12-09T10:03:17.342Z,99097.59
2022-12-09T10:05:51.164Z,99096.47
2022-12-09T10:08:27.153Z,99099.97
2022-12-09T10:11:03.912Z,99095.47
2022-12-09T10:13:45.153Z,99092.25
2022-12-09T10:16:16.614Z,99091.59
2022-12-09T10:19:04.225Z,99081.84
2022-12-09T10:21:38.708Z,99082.38
2022-12-09T10:24:16.746Z,99080.50
2022-12-09T10:26:50.232Z,99077.44
2022-12-09T10:29:21.330Z,99077.09
2022-12-09T10:31:50.860Z,99068.94
2022-12-09T10:34:19.339Z,99065.19
2022-12-09T10:36:48.035Z,99068.03
2022-12-09T10:39:16.495Z,99062.69
2022-12-09T10:42:03.904Z,99059.47
2022-12-09T10:44:31.967Z,99061.56
2022-12-09T10:47:04.218Z,99063.09
2022-12-09T10:49:33.113Z,99059.31
2022-12-09T10:52:01.143Z,99062.63
2022-12-09T10:54:35.794Z,99057.84
2022-12-09T10:57:08.902Z,99063.91
2022-12-09T10:59:37.485Z,99062.03
2022-12-09T11:02:22.979Z,99059.25
2022-12-09T11:04:51.324Z,99057.63
2022-12-09T11:07:20.913Z,99055.44
2022-12-09T11:09:50.023Z,99061.28
2022-12-09T11:12:21.194Z,99061.38
2022-12-09T11:14:53.341Z,99058.22
2022-12-09T11:17:24.328Z,99064.72
2022-12-09T11:19:54.230Z,99057.66
2022-12-09T11:22:34.516Z,99058.88
2022-12-09T11:25:18.357Z,99051.84
2022-12-09T11:27:50.887Z,99056.84
2022-12-09T11:30:20.544Z,99058.28
2022-12-09T11:33:21.264Z,99054.28
2022-12-09T11:35:56.071Z,99045.91
2022-12-09T11:38:32.839Z,99040.06
2022-12-09T11:41:02.935Z,99037.91
2022-12-09T11:43:32.930Z,99038.44
2022-12-09T11:46:00.515Z,99038.81
2022-12-09T11:48:36.186Z,99041.16
2022-12-09T11:51:07.796Z,99042.88
2022-12-09T11:53:40.562Z,99040.81
2022-12-09T11:56:14.640Z,99039.13
2022-12-09T11:58:45.971Z,99035.44
2022-12-09T12:01:17.053Z,99040.41
2022-12-09T12:03:49.274Z,99038.59
2022-12-09T12:06:20.472Z,99031.47
2022-12-09T12:08:50.340Z,99038.06
2022-12-09T12:11:19.803Z,99029.78
2022-12-09T12:13:48.879Z,99027.94
2022-12-09T12:16:39.259Z,99028.84
2022-12-09T12:19:15.720Z,99027.84
2022-12-09T12:21:54.785Z,99025.91
2022-12-09T12:24:59.231Z,99028.28
2022-12-09T12:27:36.754Z,99030.16
2022-12-09T12:30:07.239Z,99025.38
2022-12-09T12:32:43.029Z,99032.66
2022-12-09T12:35:27.327Z,99033.13
2022-12-09T12:38:01.775Z,99026.84
2022-12-09T12:40:36.024Z,99030.88
2022-12-09T12:43:29.908Z,99026.56
2022-12-09T12:46:18.427Z,99020.81
2022-12-09T12:48:55.303Z,99023.44
2022-12-09T12:51:30.295Z,99024.22
2022-12-09T12:57:25.160Z,99015.66
2022-12-09T12:59:58.940Z,99016.59
2022-12-09T13:02:36.639Z,99015.41
2022-12-09T13:05:06.132Z,99014.59
2022-12-09T13:07:40.968Z,99009.59
2022-12-09T13:10:24.766Z,99003.81
2022-12-09T13:31:53.272Z,98994.41
2022-12-09T13:49:40.606Z,98932.94
